sensor_id;sensor_type;location;lat;lon;timestamp;P1;durP1;ratioP1;P2;durP2;ratioP2
66089;SDS011;53113;45.602;11.904;2022-09-13T00:00:58;8.70;;;6.00;;
66089;SDS011;53113;45.602;11.904;2022-09-13T00:03:25;9.00;;;6.10;;
66089;SDS011;53113;45.602;11.904;2022-09-13T00:05:51;10.60;;;6.80;;
66089;SDS011;53113;45.602;11.904;2022-09-13T00:08:17;10.60;;;7.10;;
66089;SDS011;53113;45.602;11.904;2022-09-13T00:10:43;10.30;;;7.00;;
66089;SDS011;53113;45.602;11.904;2022-09-13T00:13:11;9.20;;;6.70;;
66089;SDS011;53113;45.602;11.904;2022-09-13T00:15:42;9.00;;;6.90;;
66089;SDS011;53113;45.602;11.904;2022-09-13T00:18:13;11.20;;;7.00;;
66089;SDS011;53113;45.602;11.904;2022-09-13T00:20:39;10.00;;;7.40;;
66089;SDS011;53113;45.602;11.904;2022-09-13T00:23:05;10.60;;;6.90;;
66089;SDS011;53113;45.602;11.904;2022-09-13T00:25:31;11.00;;;7.30;;
66089;SDS011;53113;45.602;11.904;2022-09-13T00:27:56;10.90;;;8.10;;
66089;SDS011;53113;45.602;11.904;2022-09-13T00:30:22;11.80;;;8.40;;
66089;SDS011;53113;45.602;11.904;2022-09-13T00:32:47;11.10;;;8.00;;
66089;SDS011;53113;45.602;11.904;2022-09-13T00:35:12;10.60;;;9.10;;
66089;SDS011;53113;45.602;11.904;2022-09-13T00:37:38;13.20;;;8.40;;
66089;SDS011;53113;45.602;11.904;2022-09-13T00:40:04;10.20;;;7.10;;
66089;SDS011;53113;45.602;11.904;2022-09-13T00:42:30;10.80;;;6.90;;
66089;SDS011;53113;45.602;11.904;2022-09-13T00:53:07;10.70;;;7.90;;
66089;SDS011;53113;45.602;11.904;2022-09-13T00:55:43;10.90;;;7.80;;
66089;SDS011;53113;45.602;11.904;2022-09-13T00:58:21;10.50;;;8.20;;
66089;SDS011;53113;45.602;11.904;2022-09-13T01:00:51;11.40;;;7.70;;
66089;SDS011;53113;45.602;11.904;2022-09-13T01:03:20;12.20;;;7.70;;
66089;SDS011;53113;45.602;11.904;2022-09-13T01:05:53;11.70;;;8.30;;
66089;SDS011;53113;45.602;11.904;2022-09-13T01:08:24;11.70;;;7.60;;
66089;SDS011;53113;45.602;11.904;2022-09-13T01:10:55;9.10;;;6.70;;
66089;SDS011;53113;45.602;11.904;2022-09-13T01:13:28;9.40;;;7.00;;
66089;SDS011;53113;45.602;11.904;2022-09-13T01:15:56;11.20;;;7.30;;
66089;SDS011;53113;45.602;11.904;2022-09-13T01:18:23;9.90;;;8.40;;
66089;SDS011;53113;45.602;11.904;2022-09-13T01:46:04;11.30;;;8.30;;
66089;SDS011;53113;45.602;11.904;2022-09-13T01:51:48;10.80;;;8.40;;
66089;SDS011;53113;45.602;11.904;2022-09-13T01:57:16;9.20;;;6.70;;
66089;SDS011;53113;45.602;11.904;2022-09-13T01:59:53;9.80;;;7.40;;
66089;SDS011;53113;45.602;11.904;2022-09-13T02:02:39;10.40;;;7.90;;
66089;SDS011;53113;45.602;11.904;2022-09-13T02:05:18;9.50;;;7.90;;
66089;SDS011;53113;45.602;11.904;2022-09-13T02:07:59;9.10;;;7.30;;
66089;SDS011;53113;45.602;11.904;2022-09-13T02:10:49;11.40;;;7.20;;
66089;SDS011;53113;45.602;11.904;2022-09-13T02:13:23;9.50;;;7.60;;
66089;SDS011;53113;45.602;11.904;2022-09-13T02:15:53;11.80;;;7.40;;
66089;SDS011;53113;45.602;11.904;2022-09-13T02:18:34;10.80;;;8.10;;
66089;SDS011;53113;45.602;11.904;2022-09-13T02:21:06;12.10;;;8.20;;
66089;SDS011;53113;45.602;11.904;2022-09-13T02:23:42;9.70;;;7.80;;
66089;SDS011;53113;45.602;11.904;2022-09-13T02:26:13;9.20;;;6.80;;
66089;SDS011;53113;45.602;11.904;2022-09-13T02:28:44;9.40;;;7.10;;
66089;SDS011;53113;45.602;11.904;2022-09-13T02:31:17;9.30;;;7.40;;
66089;SDS011;53113;45.602;11.904;2022-09-13T02:33:50;10.60;;;7.80;;
66089;SDS011;53113;45.602;11.904;2022-09-13T02:36:23;9.70;;;7.30;;
66089;SDS011;53113;45.602;11.904;2022-09-13T02:39:00;8.90;;;7.30;;
66089;SDS011;53113;45.602;11.904;2022-09-13T02:44:08;9.10;;;6.70;;
66089;SDS011;53113;45.602;11.904;2022-09-13T02:46:54;8.90;;;6.60;;
66089;SDS011;53113;45.602;11.904;2022-09-13T02:52:15;10.40;;;8.00;;
66089;SDS011;53113;45.602;11.904;2022-09-13T02:54:48;10.20;;;7.90;;
66089;SDS011;53113;45.602;11.904;2022-09-13T02:57:41;10.60;;;6.90;;
66089;SDS011;53113;45.602;11.904;2022-09-13T03:00:10;12.60;;;8.10;;
66089;SDS011;53113;45.602;11.904;2022-09-13T03:02:36;9.80;;;8.00;;
66089;SDS011;53113;45.602;11.904;2022-09-13T03:05:06;10.00;;;7.70;;
66089;SDS011;53113;45.602;11.904;2022-09-13T03:07:31;11.80;;;8.20;;
66089;SDS011;53113;45.602;11.904;2022-09-13T03:10:01;10.50;;;7.50;;
66089;SDS011;53113;45.602;11.904;2022-09-13T03:12:45;11.10;;;8.10;;
66089;SDS011;53113;45.602;11.904;2022-09-13T03:29:26;9.90;;;6.90;;
66089;SDS011;53113;45.602;11.904;2022-09-13T03:34:46;9.80;;;6.50;;
66089;SDS011;53113;45.602;11.904;2022-09-13T03:37:40;11.40;;;7.20;;
66089;SDS011;53113;45.602;11.904;2022-09-13T03:42:58;9.60;;;6.90;;
66089;SDS011;53113;45.602;11.904;2022-09-13T03:45:27;10.90;;;7.10;;
66089;SDS011;53113;45.602;11.904;2022-09-13T03:47:57;10.10;;;8.10;;
66089;SDS011;53113;45.602;11.904;2022-09-13T03:50:23;9.20;;;7.10;;
66089;SDS011;53113;45.602;11.904;2022-09-13T03:52:56;9.00;;;6.90;;
66089;SDS011;53113;45.602;11.904;2022-09-13T03:55:25;9.50;;;6.70;;
66089;SDS011;53113;45.602;11.904;2022-09-13T03:57:52;11.00;;;7.50;;
66089;SDS011;53113;45.602;11.904;2022-09-13T04:00:17;9.80;;;7.10;;
66089;SDS011;53113;45.602;11.904;2022-09-13T04:02:43;10.90;;;7.10;;
66089;SDS011;53113;45.602;11.904;2022-09-13T04:05:09;10.10;;;7.40;;
66089;SDS011;53113;45.602;11.904;2022-09-13T04:07:35;10.70;;;7.60;;
66089;SDS011;53113;45.602;11.904;2022-09-13T04:10:00;11.10;;;6.90;;
66089;SDS011;53113;45.602;11.904;2022-09-13T04:12:26;11.80;;;7.60;;
66089;SDS011;53113;45.602;11.904;2022-09-13T04:14:55;10.50;;;7.70;;
66089;SDS011;53113;45.602;11.904;2022-09-13T04:17:21;11.30;;;7.30;;
66089;SDS011;53113;45.602;11.904;2022-09-13T04:19:47;9.70;;;7.60;;
66089;SDS011;53113;45.602;11.904;2022-09-13T04:22:12;9.50;;;7.10;;
66089;SDS011;53113;45.602;11.904;2022-09-13T04:24:39;12.20;;;7.70;;
66089;SDS011;53113;45.602;11.904;2022-09-13T04:27:04;10.30;;;7.50;;
66089;SDS011;53113;45.602;11.904;2022-09-13T04:29:31;10.10;;;6.40;;
66089;SDS011;53113;45.602;11.904;2022-09-13T04:31:57;9.20;;;6.40;;
66089;SDS011;53113;45.602;11.904;2022-09-13T04:34:23;9.50;;;6.70;;
66089;SDS011;53113;45.602;11.904;2022-09-13T04:36:50;10.30;;;7.60;;
66089;SDS011;53113;45.602;11.904;2022-09-13T04:39:17;9.90;;;6.90;;
66089;SDS011;53113;45.602;11.904;2022-09-13T04:41:44;10.30;;;7.10;;
66089;SDS011;53113;45.602;11.904;2022-09-13T04:44:12;9.10;;;6.90;;
66089;SDS011;53113;45.602;11.904;2022-09-13T04:46:40;10.00;;;6.70;;
66089;SDS011;53113;45.602;11.904;2022-09-13T04:49:05;9.70;;;6.30;;
66089;SDS011;53113;45.602;11.904;2022-09-13T04:51:32;8.30;;;6.30;;
66089;SDS011;53113;45.602;11.904;2022-09-13T04:53:57;9.80;;;6.90;;
66089;SDS011;53113;45.602;11.904;2022-09-13T04:56:24;11.70;;;7.00;;
66089;SDS011;53113;45.602;11.904;2022-09-13T04:58:51;11.10;;;6.70;;
66089;SDS011;53113;45.602;11.904;2022-09-13T05:01:18;9.60;;;6.70;;
66089;SDS011;53113;45.602;11.904;2022-09-13T05:03:44;9.90;;;5.80;;
66089;SDS011;53113;45.602;11.904;2022-09-13T05:06:10;8.10;;;6.10;;
66089;SDS011;53113;45.602;11.904;2022-09-13T05:08:37;9.00;;;6.70;;
66089;SDS011;53113;45.602;11.904;2022-09-13T05:11:04;10.40;;;7.00;;
66089;SDS011;53113;45.602;11.904;2022-09-13T05:13:31;8.40;;;6.80;;
66089;SDS011;53113;45.602;11.904;2022-09-13T05:15:58;9.40;;;7.10;;
66089;SDS011;53113;45.602;11.904;2022-09-13T05:18:29;10.20;;;7.00;;
66089;SDS011;53113;45.602;11.904;2022-09-13T05:21:00;9.70;;;7.00;;
66089;SDS011;53113;45.602;11.904;2022-09-13T05:23:28;11.00;;;7.00;;
66089;SDS011;53113;45.602;11.904;2022-09-13T05:25:56;9.20;;;6.50;;
66089;SDS011;53113;45.602;11.904;2022-09-13T05:28:23;10.30;;;7.00;;
66089;SDS011;53113;45.602;11.904;2022-09-13T05:30:57;10.80;;;6.30;;
66089;SDS011;53113;45.602;11.904;2022-09-13T05:33:23;10.30;;;6.80;;
66089;SDS011;53113;45.602;11.904;2022-09-13T05:35:51;8.90;;;6.80;;
66089;SDS011;53113;45.602;11.904;2022-09-13T05:38:17;9.10;;;6.00;;
66089;SDS011;53113;45.602;11.904;2022-09-13T05:40:43;10.30;;;6.30;;
66089;SDS011;53113;45.602;11.904;2022-09-13T05:43:09;11.10;;;6.20;;
66089;SDS011;53113;45.602;11.904;2022-09-13T05:45:35;8.80;;;6.30;;
66089;SDS011;53113;45.602;11.904;2022-09-13T05:48:01;10.70;;;6.20;;
66089;SDS011;53113;45.602;11.904;2022-09-13T05:50:26;9.00;;;5.70;;
66089;SDS011;53113;45.602;11.904;2022-09-13T05:52:55;8.50;;;6.30;;
66089;SDS011;53113;45.602;11.904;2022-09-13T05:55:21;9.40;;;6.50;;
66089;SDS011;53113;45.602;11.904;2022-09-13T05:57:47;13.60;;;6.50;;
66089;SDS011;53113;45.602;11.904;2022-09-13T06:00:14;10.00;;;5.70;;
66089;SDS011;53113;45.602;11.904;2022-09-13T06:02:40;9.60;;;5.90;;
66089;SDS011;53113;45.602;11.904;2022-09-13T06:05:07;8.20;;;5.80;;
66089;SDS011;53113;45.602;11.904;2022-09-13T06:07:40;8.80;;;6.00;;
66089;SDS011;53113;45.602;11.904;2022-09-13T06:10:07;10.10;;;6.20;;
66089;SDS011;53113;45.602;11.904;2022-09-13T06:12:34;16.40;;;7.50;;
66089;SDS011;53113;45.602;11.904;2022-09-13T06:15:01;12.20;;;8.50;;
66089;SDS011;53113;45.602;11.904;2022-09-13T06:17:27;14.80;;;9.70;;
66089;SDS011;53113;45.602;11.904;2022-09-13T06:19:53;19.20;;;17.00;;
66089;SDS011;53113;45.602;11.904;2022-09-13T06:22:21;16.60;;;11.60;;
66089;SDS011;53113;45.602;11.904;2022-09-13T06:24:47;13.20;;;7.20;;
66089;SDS011;53113;45.602;11.904;2022-09-13T06:27:13;12.40;;;6.80;;
66089;SDS011;53113;45.602;11.904;2022-09-13T06:29:38;10.90;;;6.20;;
66089;SDS011;53113;45.602;11.904;2022-09-13T06:32:04;10.90;;;6.40;;
66089;SDS011;53113;45.602;11.904;2022-09-13T06:34:30;12.10;;;6.00;;
66089;SDS011;53113;45.602;11.904;2022-09-13T06:36:55;10.00;;;5.80;;
66089;SDS011;53113;45.602;11.904;2022-09-13T06:39:21;9.10;;;5.70;;
66089;SDS011;53113;45.602;11.904;2022-09-13T06:41:47;8.80;;;5.20;;
66089;SDS011;53113;45.602;11.904;2022-09-13T06:44:13;10.50;;;5.90;;
66089;SDS011;53113;45.602;11.904;2022-09-13T06:46:38;9.60;;;5.90;;
66089;SDS011;53113;45.602;11.904;2022-09-13T06:49:05;10.80;;;5.90;;
66089;SDS011;53113;45.602;11.904;2022-09-13T06:51:34;11.70;;;6.10;;
66089;SDS011;53113;45.602;11.904;2022-09-13T06:54:00;9.30;;;6.00;;
66089;SDS011;53113;45.602;11.904;2022-09-13T06:56:30;11.20;;;5.10;;
66089;SDS011;53113;45.602;11.904;2022-09-13T06:58:59;8.90;;;4.90;;
66089;SDS011;53113;45.602;11.904;2022-09-13T07:01:28;9.50;;;4.80;;
66089;SDS011;53113;45.602;11.904;2022-09-13T07:03:59;7.10;;;4.50;;
66089;SDS011;53113;45.602;11.904;2022-09-13T07:06:27;9.90;;;5.30;;
66089;SDS011;53113;45.602;11.904;2022-09-13T07:08:55;8.70;;;4.20;;
66089;SDS011;53113;45.602;11.904;2022-09-13T07:11:23;8.50;;;4.70;;
66089;SDS011;53113;45.602;11.904;2022-09-13T07:16:18;9.00;;;4.40;;
66089;SDS011;53113;45.602;11.904;2022-09-13T07:19:06;8.80;;;4.20;;
66089;SDS011;53113;45.602;11.904;2022-09-13T07:21:35;7.30;;;4.10;;
66089;SDS011;53113;45.602;11.904;2022-09-13T07:24:01;8.30;;;4.10;;
66089;SDS011;53113;45.602;11.904;2022-09-13T07:26:28;7.90;;;3.60;;
66089;SDS011;53113;45.602;11.904;2022-09-13T07:28:57;7.20;;;4.10;;
66089;SDS011;53113;45.602;11.904;2022-09-13T07:31:25;7.90;;;3.80;;
66089;SDS011;53113;45.602;11.904;2022-09-13T07:33:59;6.90;;;3.90;;
66089;SDS011;53113;45.602;11.904;2022-09-13T07:36:30;7.40;;;3.40;;
66089;SDS011;53113;45.602;11.904;2022-09-13T07:38:57;7.80;;;3.90;;
66089;SDS011;53113;45.602;11.904;2022-09-13T07:41:25;7.20;;;3.90;;
66089;SDS011;53113;45.602;11.904;2022-09-13T07:43:52;7.00;;;3.60;;
66089;SDS011;53113;45.602;11.904;2022-09-13T07:46:20;7.90;;;3.80;;
66089;SDS011;53113;45.602;11.904;2022-09-13T07:48:47;8.20;;;3.50;;
66089;SDS011;53113;45.602;11.904;2022-09-13T07:51:17;9.60;;;3.70;;
66089;SDS011;53113;45.602;11.904;2022-09-13T07:53:51;6.60;;;3.80;;
66089;SDS011;53113;45.602;11.904;2022-09-13T07:56:21;7.40;;;3.60;;
66089;SDS011;53113;45.602;11.904;2022-09-13T07:58:49;7.90;;;3.60;;
66089;SDS011;53113;45.602;11.904;2022-09-13T08:01:23;6.50;;;3.70;;
66089;SDS011;53113;45.602;11.904;2022-09-13T08:03:51;6.80;;;3.70;;
66089;SDS011;53113;45.602;11.904;2022-09-13T08:06:21;6.10;;;3.20;;
66089;SDS011;53113;45.602;11.904;2022-09-13T08:08:48;7.80;;;3.50;;
66089;SDS011;53113;45.602;11.904;2022-09-13T08:11:15;7.50;;;3.20;;
66089;SDS011;53113;45.602;11.904;2022-09-13T08:13:44;6.20;;;3.20;;
66089;SDS011;53113;45.602;11.904;2022-09-13T08:16:11;8.80;;;3.60;;
66089;SDS011;53113;45.602;11.904;2022-09-13T08:18:36;7.60;;;3.80;;
66089;SDS011;53113;45.602;11.904;2022-09-13T08:21:02;6.60;;;3.70;;
66089;SDS011;53113;45.602;11.904;2022-09-13T08:23:28;8.10;;;3.20;;
66089;SDS011;53113;45.602;11.904;2022-09-13T08:25:53;8.10;;;3.60;;
66089;SDS011;53113;45.602;11.904;2022-09-13T08:28:26;8.50;;;3.50;;
66089;SDS011;53113;45.602;11.904;2022-09-13T08:30:52;7.70;;;3.10;;
66089;SDS011;53113;45.602;11.904;2022-09-13T08:33:17;6.50;;;3.40;;
66089;SDS011;53113;45.602;11.904;2022-09-13T08:35:52;6.70;;;3.10;;
66089;SDS011;53113;45.602;11.904;2022-09-13T08:38:19;8.10;;;3.40;;
66089;SDS011;53113;45.602;11.904;2022-09-13T08:40:49;6.40;;;3.20;;
66089;SDS011;53113;45.602;11.904;2022-09-13T08:48:48;6.10;;;3.00;;
66089;SDS011;53113;45.602;11.904;2022-09-13T08:51:25;5.10;;;2.70;;
66089;SDS011;53113;45.602;11.904;2022-09-13T08:53:56;5.90;;;3.40;;
66089;SDS011;53113;45.602;11.904;2022-09-13T09:07:10;7.90;;;3.30;;
66089;SDS011;53113;45.602;11.904;2022-09-13T09:09:45;6.60;;;2.50;;
66089;SDS011;53113;45.602;11.904;2022-09-13T09:12:26;6.40;;;2.50;;
66089;SDS011;53113;45.602;11.904;2022-09-13T09:20:30;4.10;;;2.00;;
66089;SDS011;53113;45.602;11.904;2022-09-13T09:23:00;5.00;;;2.40;;
66089;SDS011;53113;45.602;11.904;2022-09-13T09:25:31;4.90;;;2.10;;
66089;SDS011;53113;45.602;11.904;2022-09-13T09:27:59;5.10;;;2.00;;
66089;SDS011;53113;45.602;11.904;2022-09-13T09:30:35;4.40;;;2.00;;
66089;SDS011;53113;45.602;11.904;2022-09-13T09:33:26;5.00;;;2.40;;
66089;SDS011;53113;45.602;11.904;2022-09-13T09:38:32;3.40;;;1.40;;
66089;SDS011;53113;45.602;11.904;2022-09-13T09:41:36;4.30;;;1.70;;
66089;SDS011;53113;45.602;11.904;2022-09-13T09:44:16;4.10;;;2.00;;
66089;SDS011;53113;45.602;11.904;2022-09-13T09:46:42;6.00;;;2.60;;
66089;SDS011;53113;45.602;11.904;2022-09-13T09:49:16;5.10;;;1.90;;
66089;SDS011;53113;45.602;11.904;2022-09-13T09:52:08;4.80;;;1.80;;
66089;SDS011;53113;45.602;11.904;2022-09-13T09:54:36;6.60;;;1.70;;
66089;SDS011;53113;45.602;11.904;2022-09-13T09:57:06;7.30;;;1.90;;
66089;SDS011;53113;45.602;11.904;2022-09-13T09:59:32;3.60;;;1.40;;
66089;SDS011;53113;45.602;11.904;2022-09-13T10:01:59;4.70;;;1.80;;
66089;SDS011;53113;45.602;11.904;2022-09-13T10:04:29;4.50;;;1.60;;
66089;SDS011;53113;45.602;11.904;2022-09-13T10:07:19;4.00;;;2.10;;
66089;SDS011;53113;45.602;11.904;2022-09-13T10:09:58;4.60;;;1.80;;
66089;SDS011;53113;45.602;11.904;2022-09-13T10:12:33;4.60;;;1.40;;
66089;SDS011;53113;45.602;11.904;2022-09-13T10:15:03;3.50;;;1.20;;
66089;SDS011;53113;45.602;11.904;2022-09-13T10:17:30;4.50;;;1.40;;
66089;SDS011;53113;45.602;11.904;2022-09-13T10:20:03;5.50;;;2.00;;
66089;SDS011;53113;45.602;11.904;2022-09-13T10:22:39;3.30;;;1.50;;
66089;SDS011;53113;45.602;11.904;2022-09-13T10:25:40;5.90;;;1.80;;
66089;SDS011;53113;45.602;11.904;2022-09-13T10:28:01;3.30;;;1.40;;
66089;SDS011;53113;45.602;11.904;2022-09-13T10:35:55;5.10;;;1.90;;
66089;SDS011;53113;45.602;11.904;2022-09-13T10:38:37;4.50;;;2.00;;
66089;SDS011;53113;45.602;11.904;2022-09-13T10:41:05;3.30;;;1.50;;
66089;SDS011;53113;45.602;11.904;2022-09-13T10:43:46;4.50;;;1.60;;
66089;SDS011;53113;45.602;11.904;2022-09-13T10:46:13;3.00;;;1.30;;
66089;SDS011;53113;45.602;11.904;2022-09-13T10:48:47;3.30;;;1.60;;
66089;SDS011;53113;45.602;11.904;2022-09-13T10:51:41;4.20;;;1.40;;
66089;SDS011;53113;45.602;11.904;2022-09-13T10:56:31;3.70;;;1.40;;
66089;SDS011;53113;45.602;11.904;2022-09-13T10:59:18;3.20;;;1.30;;
66089;SDS011;53113;45.602;11.904;2022-09-13T11:04:50;2.90;;;1.20;;
66089;SDS011;53113;45.602;11.904;2022-09-13T11:10:12;3.60;;;1.30;;
66089;SDS011;53113;45.602;11.904;2022-09-13T11:12:57;2.80;;;1.30;;
66089;SDS011;53113;45.602;11.904;2022-09-13T11:21:45;2.60;;;1.30;;
66089;SDS011;53113;45.602;11.904;2022-09-13T11:35:25;2.80;;;1.20;;
66089;SDS011;53113;45.602;11.904;2022-09-13T11:40:27;8.10;;;1.60;;
66089;SDS011;53113;45.602;11.904;2022-09-13T11:45:43;4.40;;;1.60;;
66089;SDS011;53113;45.602;11.904;2022-09-13T11:54:17;4.60;;;1.60;;
66089;SDS011;53113;45.602;11.904;2022-09-13T11:57:02;6.40;;;1.90;;
66089;SDS011;53113;45.602;11.904;2022-09-13T12:02:12;5.90;;;1.90;;
66089;SDS011;53113;45.602;11.904;2022-09-13T12:04:55;4.10;;;1.70;;
66089;SDS011;53113;45.602;11.904;2022-09-13T12:07:33;2.70;;;1.40;;
66089;SDS011;53113;45.602;11.904;2022-09-13T12:12:46;5.20;;;1.70;;
66089;SDS011;53113;45.602;11.904;2022-09-13T12:15:18;5.20;;;1.90;;
66089;SDS011;53113;45.602;11.904;2022-09-13T12:17:51;4.90;;;1.60;;
66089;SDS011;53113;45.602;11.904;2022-09-13T12:23:03;5.50;;;1.60;;
66089;SDS011;53113;45.602;11.904;2022-09-13T12:25:59;4.90;;;2.20;;
66089;SDS011;53113;45.602;11.904;2022-09-13T12:28:35;6.40;;;2.30;;
66089;SDS011;53113;45.602;11.904;2022-09-13T12:31:10;5.90;;;2.00;;
66089;SDS011;53113;45.602;11.904;2022-09-13T12:33:44;5.20;;;2.60;;
66089;SDS011;53113;45.602;11.904;2022-09-13T13:01:13;5.20;;;2.30;;
66089;SDS011;53113;45.602;11.904;2022-09-13T13:12:09;4.30;;;1.90;;
66089;SDS011;53113;45.602;11.904;2022-09-13T13:33:49;4.60;;;1.80;;
66089;SDS011;53113;45.602;11.904;2022-09-13T13:36:47;4.80;;;1.80;;
66089;SDS011;53113;45.602;11.904;2022-09-13T13:41:55;3.70;;;1.80;;
66089;SDS011;53113;45.602;11.904;2022-09-13T13:46:50;5.40;;;1.80;;
66089;SDS011;53113;45.602;11.904;2022-09-13T14:00:10;4.20;;;2.00;;
66089;SDS011;53113;45.602;11.904;2022-09-13T14:02:41;5.20;;;2.00;;
66089;SDS011;53113;45.602;11.904;2022-09-13T14:10:45;4.30;;;1.90;;
66089;SDS011;53113;45.602;11.904;2022-09-13T14:16:04;6.20;;;2.20;;
66089;SDS011;53113;45.602;11.904;2022-09-13T14:21:32;4.90;;;2.00;;
66089;SDS011;53113;45.602;11.904;2022-09-13T14:26:40;5.70;;;2.00;;
66089;SDS011;53113;45.602;11.904;2022-09-13T14:29:06;5.00;;;1.80;;
66089;SDS011;53113;45.602;11.904;2022-09-13T14:31:34;4.90;;;1.60;;
66089;SDS011;53113;45.602;11.904;2022-09-13T14:34:01;3.50;;;1.30;;
66089;SDS011;53113;45.602;11.904;2022-09-13T14:36:27;4.30;;;1.30;;
66089;SDS011;53113;45.602;11.904;2022-09-13T14:38:57;3.20;;;1.30;;
66089;SDS011;53113;45.602;11.904;2022-09-13T14:41:29;3.30;;;1.10;;
66089;SDS011;53113;45.602;11.904;2022-09-13T14:44:20;3.20;;;1.10;;
66089;SDS011;53113;45.602;11.904;2022-09-13T14:46:52;3.40;;;1.20;;
66089;SDS011;53113;45.602;11.904;2022-09-13T14:49:42;5.10;;;1.10;;
66089;SDS011;53113;45.602;11.904;2022-09-13T14:52:25;5.30;;;1.20;;
66089;SDS011;53113;45.602;11.904;2022-09-13T14:54:59;3.70;;;1.50;;
66089;SDS011;53113;45.602;11.904;2022-09-13T14:57:33;4.20;;;1.00;;
66089;SDS011;53113;45.602;11.904;2022-09-13T15:00:04;4.70;;;1.30;;
66089;SDS011;53113;45.602;11.904;2022-09-13T15:02:39;3.50;;;1.20;;
66089;SDS011;53113;45.602;11.904;2022-09-13T15:05:20;4.20;;;1.30;;
66089;SDS011;53113;45.602;11.904;2022-09-13T15:07:57;4.00;;;1.10;;
66089;SDS011;53113;45.602;11.904;2022-09-13T15:10:25;4.30;;;0.90;;
66089;SDS011;53113;45.602;11.904;2022-09-13T15:17:57;5.10;;;1.30;;
66089;SDS011;53113;45.602;11.904;2022-09-13T15:20:26;2.40;;;1.20;;
66089;SDS011;53113;45.602;11.904;2022-09-13T15:22:55;3.00;;;1.00;;
66089;SDS011;53113;45.602;11.904;2022-09-13T15:25:25;3.60;;;1.20;;
66089;SDS011;53113;45.602;11.904;2022-09-13T15:27:53;4.80;;;1.00;;
66089;SDS011;53113;45.602;11.904;2022-09-13T15:32:46;5.50;;;1.20;;
66089;SDS011;53113;45.602;11.904;2022-09-13T15:35:22;5.10;;;1.10;;
66089;SDS011;53113;45.602;11.904;2022-09-13T15:37:58;2.50;;;1.10;;
66089;SDS011;53113;45.602;11.904;2022-09-13T15:40:25;3.70;;;1.00;;
66089;SDS011;53113;45.602;11.904;2022-09-13T15:42:54;3.80;;;1.30;;
66089;SDS011;53113;45.602;11.904;2022-09-13T15:45:21;4.00;;;1.00;;
66089;SDS011;53113;45.602;11.904;2022-09-13T15:47:48;3.50;;;1.00;;
66089;SDS011;53113;45.602;11.904;2022-09-13T15:50:21;3.40;;;1.00;;
66089;SDS011;53113;45.602;11.904;2022-09-13T15:52:56;4.30;;;1.10;;
66089;SDS011;53113;45.602;11.904;2022-09-13T15:55:23;3.80;;;1.10;;
66089;SDS011;53113;45.602;11.904;2022-09-13T15:57:51;3.70;;;1.20;;
66089;SDS011;53113;45.602;11.904;2022-09-13T16:00:18;3.80;;;1.10;;
66089;SDS011;53113;45.602;11.904;2022-09-13T16:02:48;3.70;;;1.00;;
66089;SDS011;53113;45.602;11.904;2022-09-13T16:05:15;3.60;;;1.00;;
66089;SDS011;53113;45.602;11.904;2022-09-13T16:07:41;4.90;;;1.10;;
66089;SDS011;53113;45.602;11.904;2022-09-13T16:10:12;2.60;;;1.00;;
66089;SDS011;53113;45.602;11.904;2022-09-13T16:12:43;3.70;;;1.10;;
66089;SDS011;53113;45.602;11.904;2022-09-13T16:15:09;4.00;;;1.10;;
66089;SDS011;53113;45.602;11.904;2022-09-13T16:17:36;2.50;;;1.00;;
66089;SDS011;53113;45.602;11.904;2022-09-13T16:20:03;5.90;;;1.20;;
66089;SDS011;53113;45.602;11.904;2022-09-13T16:22:31;5.50;;;1.10;;
66089;SDS011;53113;45.602;11.904;2022-09-13T16:24:57;5.80;;;1.00;;
66089;SDS011;53113;45.602;11.904;2022-09-13T16:27:23;4.70;;;1.10;;
66089;SDS011;53113;45.602;11.904;2022-09-13T16:32:17;3.50;;;1.10;;
66089;SDS011;53113;45.602;11.904;2022-09-13T16:34:42;3.60;;;1.10;;
66089;SDS011;53113;45.602;11.904;2022-09-13T16:37:09;2.60;;;1.20;;
66089;SDS011;53113;45.602;11.904;2022-09-13T16:39:39;2.30;;;1.00;;
66089;SDS011;53113;45.602;11.904;2022-09-13T16:42:04;3.10;;;1.10;;
66089;SDS011;53113;45.602;11.904;2022-09-13T16:44:31;2.90;;;1.10;;
66089;SDS011;53113;45.602;11.904;2022-09-13T16:46:56;3.30;;;1.10;;
66089;SDS011;53113;45.602;11.904;2022-09-13T16:49:23;3.50;;;1.10;;
66089;SDS011;53113;45.602;11.904;2022-09-13T16:51:50;3.40;;;1.10;;
66089;SDS011;53113;45.602;11.904;2022-09-13T16:54:16;2.80;;;1.00;;
66089;SDS011;53113;45.602;11.904;2022-09-13T16:56:41;5.50;;;1.30;;
66089;SDS011;53113;45.602;11.904;2022-09-13T16:59:07;5.20;;;1.20;;
66089;SDS011;53113;45.602;11.904;2022-09-13T17:01:32;5.30;;;1.10;;
66089;SDS011;53113;45.602;11.904;2022-09-13T17:03:58;3.20;;;1.00;;
66089;SDS011;53113;45.602;11.904;2022-09-13T17:06:25;4.10;;;1.20;;
66089;SDS011;53113;45.602;11.904;2022-09-13T17:11:29;4.90;;;1.00;;
66089;SDS011;53113;45.602;11.904;2022-09-13T17:13:57;4.70;;;1.30;;
66089;SDS011;53113;45.602;11.904;2022-09-13T17:16:33;2.80;;;1.00;;
66089;SDS011;53113;45.602;11.904;2022-09-13T17:19:03;4.60;;;1.30;;
66089;SDS011;53113;45.602;11.904;2022-09-13T17:21:31;4.90;;;1.50;;
66089;SDS011;53113;45.602;11.904;2022-09-13T17:23:58;5.50;;;1.20;;
66089;SDS011;53113;45.602;11.904;2022-09-13T17:26:24;4.00;;;1.60;;
66089;SDS011;53113;45.602;11.904;2022-09-13T17:28:50;4.10;;;1.40;;
66089;SDS011;53113;45.602;11.904;2022-09-13T17:31:17;5.30;;;1.70;;
66089;SDS011;53113;45.602;11.904;2022-09-13T17:33:44;4.70;;;1.50;;
66089;SDS011;53113;45.602;11.904;2022-09-13T17:36:10;3.50;;;1.40;;
66089;SDS011;53113;45.602;11.904;2022-09-13T17:38:37;5.30;;;1.50;;
66089;SDS011;53113;45.602;11.904;2022-09-13T17:41:06;5.60;;;1.60;;
66089;SDS011;53113;45.602;11.904;2022-09-13T17:43:34;5.70;;;1.70;;
66089;SDS011;53113;45.602;11.904;2022-09-13T17:46:05;5.80;;;1.70;;
66089;SDS011;53113;45.602;11.904;2022-09-13T17:48:33;3.60;;;1.70;;
66089;SDS011;53113;45.602;11.904;2022-09-13T17:51:02;4.60;;;1.80;;
66089;SDS011;53113;45.602;11.904;2022-09-13T17:53:30;7.80;;;2.20;;
66089;SDS011;53113;45.602;11.904;2022-09-13T17:55:56;7.20;;;2.20;;
66089;SDS011;53113;45.602;11.904;2022-09-13T17:58:23;6.90;;;2.20;;
66089;SDS011;53113;45.602;11.904;2022-09-13T18:00:54;6.30;;;2.00;;
66089;SDS011;53113;45.602;11.904;2022-09-13T18:03:26;5.90;;;2.20;;
66089;SDS011;53113;45.602;11.904;2022-09-13T18:05:54;5.30;;;1.90;;
66089;SDS011;53113;45.602;11.904;2022-09-13T18:08:25;6.30;;;2.20;;
66089;SDS011;53113;45.602;11.904;2022-09-13T18:10:51;4.80;;;2.20;;
66089;SDS011;53113;45.602;11.904;2022-09-13T18:13:17;7.10;;;2.20;;
66089;SDS011;53113;45.602;11.904;2022-09-13T18:15:44;5.80;;;1.70;;
66089;SDS011;53113;45.602;11.904;2022-09-13T18:18:21;5.10;;;1.90;;
66089;SDS011;53113;45.602;11.904;2022-09-13T18:20:46;4.30;;;1.60;;
66089;SDS011;53113;45.602;11.904;2022-09-13T18:23:12;5.60;;;1.70;;
66089;SDS011;53113;45.602;11.904;2022-09-13T18:25:38;6.00;;;1.80;;
66089;SDS011;53113;45.602;11.904;2022-09-13T18:28:04;5.50;;;1.90;;
66089;SDS011;53113;45.602;11.904;2022-09-13T18:30:29;4.60;;;1.80;;
66089;SDS011;53113;45.602;11.904;2022-09-13T18:32:55;4.00;;;1.70;;
66089;SDS011;53113;45.602;11.904;2022-09-13T18:35:21;4.50;;;2.00;;
66089;SDS011;53113;45.602;11.904;2022-09-13T18:37:46;6.50;;;2.00;;
66089;SDS011;53113;45.602;11.904;2022-09-13T18:40:12;4.00;;;1.70;;
66089;SDS011;53113;45.602;11.904;2022-09-13T18:42:39;6.50;;;2.50;;
66089;SDS011;53113;45.602;11.904;2022-09-13T18:45:05;3.80;;;1.80;;